Assawoman, Virginia
Current Conditions -  °F | °C
As of 11:54 PM on Sunday 19 Oct 2014 (Local Time) from KWAL Reporting Station
Clear Clear  
Wind Chill: 44°   Ceiling: Unl
Heat Index: 44°   Visibility: 10mi
Dew Point: 38°   Wind: 0mph
Humidity: 79%   Direction: NA
Pressure: 30.12"   Gusts: NA
Location:  37.88°N, 75.53°W
Report Text: KWAL 200354Z AUTO 00000KT 10SM CLR 07/03 A3012 RMK AO2 SLP197 T00670033
Loading
Personal Weather Stations






























Interactive Weather Map
Tropical Storm Tracking
New forecast layout! Learn more

10-Day Weather Forecast

Advertisements
Track Severe Weather on mobile